Marinwood, California
Current Conditions -  °F | °C
As of 8:55 AM on Tuesday 27 Jan 2015 (Local Time) from KO69 Reporting Station
Clear Clear  
Wind Chill: 55°   Ceiling: Unl
Heat Index: 55°   Visibility: 10mi
Dew Point: 50°   Wind: 0mph
Humidity: 82%   Direction: NA
Pressure: 30.19"   Gusts: NA
Location:  38.0232°N, 122.547°W
Report Text: KO69 271655Z AUTO 00000KT 10SM CLR 13/10 A3019 RMK AO1
Loading
Personal Weather Stations






























Interactive Weather Map New forecast layout! Learn more

10-Day Weather Forecast

Advertisements
Track Severe Weather on mobile